Time;durP1;ratioP1;P1;durP2;ratioP2;P2;SDS_P1;SDS_P2;PMS_P1;PMS_P2;Temp;Humidity;BMP_temperature;BMP_pressure;BME280_temperature;BME280_humidity;BME280_pressure;Samples;Min_cycle;Max_cycle;Signal;HPM_P1;HPM_P2
2023/01/17 00:00:00;;;;;;;1.33;0.70;;;5.10;99.90;;;;;;4192360;28;20984;-77
2023/01/17 00:02:02;;;;;;;0.73;0.73;;;5.10;99.90;;;;;;4193501;28;20478;-77
2023/01/17 00:11:03;;;;;;;0.80;0.60;;;5.00;99.90;;;;;;4193621;28;20449;-78
2023/01/17 00:13:05;;;;;;;0.57;0.57;;;4.90;99.90;;;;;;4207253;28;20920;-78
2023/01/17 00:15:10;;;;;;;3.80;0.60;;;5.00;99.90;;;;;;4192642;28;20553;-78
2023/01/17 00:17:13;;;;;;;0.97;0.47;;;5.00;99.90;;;;;;4192682;28;20449;-77
2023/01/17 00:26:27;;;;;;;1.40;0.70;;;4.90;99.90;;;;;;4127878;28;20469;-78
2023/01/17 01:33:52;;;;;;;0.20;0.20;;;4.70;99.90;;;;;;4192505;28;21049;-77
2023/01/17 01:35:56;;;;;;;0.47;0.30;;;4.80;99.90;;;;;;4190914;28;21339;-77
2023/01/17 01:37:58;;;;;;;0.20;0.20;;;4.80;99.90;;;;;;4194184;28;20474;-77
2023/01/17 01:39:59;;;;;;;0.77;0.30;;;4.80;99.90;;;;;;4194399;28;20564;-77
2023/01/17 01:42:01;;;;;;;0.27;0.20;;;4.80;99.90;;;;;;4195619;28;20528;-77
2023/01/17 01:44:04;;;;;;;0.60;0.40;;;4.80;99.90;;;;;;4196276;28;20536;-77
2023/01/17 01:46:06;;;;;;;0.20;0.20;;;4.80;99.90;;;;;;4197382;28;20503;-77
2023/01/17 01:48:22;;;;;;;0.20;0.20;;;4.80;99.90;;;;;;4198469;28;20456;-77
2023/01/17 01:50:24;;;;;;;0.50;0.30;;;4.80;99.90;;;;;;4196878;28;20448;-77
2023/01/17 01:52:31;;;;;;;0.20;0.20;;;4.80;99.90;;;;;;4197651;28;20507;-78
2023/01/17 01:54:37;;;;;;;0.70;0.40;;;4.80;99.90;;;;;;4196929;28;20453;-78
2023/01/17 01:56:40;;;;;;;0.90;0.40;;;4.80;99.90;;;;;;4197104;28;20568;-77
2023/01/17 01:58:46;;;;;;;0.90;0.27;;;4.80;99.90;;;;;;4198136;28;20457;-78
2023/01/17 02:00:48;;;;;;;0.90;0.50;;;4.80;99.90;;;;;;4198852;28;20489;-78
2023/01/17 02:02:51;;;;;;;0.60;0.20;;;4.80;99.90;;;;;;4199897;28;20489;-78
2023/01/17 02:04:53;;;;;;;0.83;0.33;;;4.80;99.90;;;;;;4195562;28;20457;-78
2023/01/17 02:07:00;;;;;;;0.83;0.20;;;4.80;99.90;;;;;;4197524;28;20991;-77
2023/01/17 02:09:06;;;;;;;0.17;0.17;;;5.00;99.90;;;;;;4196219;28;20535;-77
2023/01/17 02:11:09;;;;;;;0.20;0.20;;;4.80;99.90;;;;;;4195467;28;20538;-78
2023/01/17 02:13:12;;;;;;;0.20;0.20;;;4.70;99.90;;;;;;4196491;28;20491;-78
2023/01/17 02:15:14;;;;;;;1.40;0.30;;;4.70;99.90;;;;;;4196877;28;20488;-78
2023/01/17 02:17:28;;;;;;;0.30;0.30;;;4.70;99.90;;;;;;4198488;28;20471;-77
2023/01/17 02:20:18;;;;;;;1.90;0.20;;;4.60;99.90;;;;;;4198206;28;20444;-78
2023/01/17 02:22:48;;;;;;;0.10;0.10;;;4.60;99.90;;;;;;4196500;28;20500;-77
2023/01/17 02:25:21;;;;;;;0.20;0.20;;;4.60;99.90;;;;;;4195514;28;20498;-77
2023/01/17 02:27:27;;;;;;;0.10;0.10;;;4.50;99.90;;;;;;4195431;28;20541;-78
2023/01/17 02:30:13;;;;;;;0.20;0.20;;;4.50;99.90;;;;;;4192298;28;20536;-78
2023/01/17 02:32:24;;;;;;;0.60;0.37;;;4.40;99.90;;;;;;4193163;28;20443;-77
2023/01/17 02:34:31;;;;;;;0.23;0.23;;;4.40;99.90;;;;;;4194002;28;20472;-78
2023/01/17 02:36:37;;;;;;;0.23;0.23;;;4.40;99.90;;;;;;4192400;28;21004;-77
2023/01/17 02:38:46;;;;;;;0.73;0.40;;;4.40;99.90;;;;;;4199877;28;20475;-78
2023/01/17 02:40:53;;;;;;;0.30;0.30;;;4.40;99.90;;;;;;4195868;28;20539;-78
2023/01/17 02:42:59;;;;;;;0.40;0.30;;;4.40;99.90;;;;;;4195906;28;20624;-78
2023/01/17 02:45:02;;;;;;;0.40;0.30;;;4.40;99.90;;;;;;4196793;28;20851;-78
2023/01/17 02:47:22;;;;;;;0.57;0.40;;;4.40;99.90;;;;;;4195193;28;20542;-78
2023/01/17 02:49:27;;;;;;;0.60;0.37;;;4.40;99.90;;;;;;4193801;28;20463;-78
2023/01/17 02:51:39;;;;;;;0.43;0.40;;;4.40;99.90;;;;;;4195541;28;20477;-80
2023/01/17 02:53:54;;;;;;;0.50;0.50;;;4.40;99.90;;;;;;4193403;28;20567;-78
2023/01/17 02:56:03;;;;;;;0.27;0.23;;;4.40;99.90;;;;;;4193793;28;20575;-78
2023/01/17 02:58:21;;;;;;;0.20;0.20;;;4.30;99.90;;;;;;4195151;28;21016;-78
2023/01/17 03:00:30;;;;;;;0.20;0.20;;;4.30;99.90;;;;;;4195391;28;21041;-78
2023/01/17 03:02:40;;;;;;;0.73;0.20;;;4.30;99.90;;;;;;4195541;28;20488;-80
2023/01/17 03:04:48;;;;;;;0.60;0.27;;;4.20;99.90;;;;;;4189006;28;20542;-78
2023/01/17 03:06:54;;;;;;;0.20;0.20;;;4.20;99.90;;;;;;4192432;28;20447;-77
2023/01/17 03:08:56;;;;;;;0.87;0.10;;;4.30;99.90;;;;;;4195643;28;20556;-78
2023/01/17 03:10:58;;;;;;;0.43;0.20;;;4.30;99.90;;;;;;4195929;28;20784;-78
2023/01/17 03:13:01;;;;;;;0.20;0.20;;;4.20;99.90;;;;;;4193733;28;20515;-78
2023/01/17 03:15:03;;;;;;;0.40;0.20;;;4.20;99.90;;;;;;4194528;28;20458;-80
2023/01/17 03:17:05;;;;;;;0.93;0.20;;;4.20;99.90;;;;;;4196839;28;20491;-78
2023/01/17 03:19:09;;;;;;;0.50;0.30;;;4.20;99.90;;;;;;4210616;28;20544;-78
2023/01/17 03:21:11;;;;;;;0.33;0.20;;;4.20;99.90;;;;;;4195268;28;21081;-78
2023/01/17 03:23:13;;;;;;;0.20;0.20;;;4.80;99.90;;;;;;4195485;28;20476;-78
2023/01/17 03:25:16;;;;;;;0.10;0.10;;;4.20;99.90;;;;;;4194504;28;20463;-78
2023/01/17 03:27:18;;;;;;;0.20;0.20;;;4.20;99.90;;;;;;4195502;28;20452;-78
2023/01/17 03:29:20;;;;;;;0.20;0.20;;;4.20;99.90;;;;;;4188126;28;20494;-78
2023/01/17 03:31:22;;;;;;;0.70;0.20;;;4.20;99.90;;;;;;4198856;28;20480;-78
2023/01/17 03:33:24;;;;;;;0.20;0.20;;;4.10;99.90;;;;;;4194917;28;20843;-78
2023/01/17 03:35:28;;;;;;;0.20;0.20;;;4.10;99.90;;;;;;4193625;28;20448;-78
2023/01/17 03:37:30;;;;;;;0.20;0.20;;;4.10;99.90;;;;;;4191683;28;21121;-78
2023/01/17 03:39:32;;;;;;;0.30;0.20;;;4.10;99.90;;;;;;4194299;28;21023;-77
2023/01/17 03:41:34;;;;;;;0.10;0.10;;;4.10;99.90;;;;;;4194161;28;20476;-78
2023/01/17 03:43:39;;;;;;;0.20;0.20;;;4.10;99.90;;;;;;4194409;28;20471;-77
2023/01/17 03:45:41;;;;;;;0.30;0.30;;;4.10;99.90;;;;;;4196959;28;20448;-78
2023/01/17 03:47:43;;;;;;;0.20;0.20;;;4.10;99.90;;;;;;4194352;28;20456;-78
2023/01/17 03:49:45;;;;;;;0.20;0.10;;;4.20;99.90;;;;;;4191186;28;21107;-78
2023/01/17 03:51:48;;;;;;;0.20;0.20;;;4.10;99.90;;;;;;4192076;28;20452;-78
2023/01/17 03:53:50;;;;;;;0.30;0.30;;;4.10;99.90;;;;;;4194274;28;20819;-78
2023/01/17 03:55:52;;;;;;;0.30;0.20;;;4.80;99.90;;;;;;4195229;28;21029;-78
2023/01/17 03:57:54;;;;;;;0.30;0.20;;;4.90;99.90;;;;;;4203647;28;21077;-78
2023/01/17 03:59:56;;;;;;;0.37;0.20;;;4.70;99.90;;;;;;4192833;28;20463;-78
2023/01/17 04:01:58;;;;;;;0.60;0.40;;;4.10;99.90;;;;;;4193639;28;20531;-79
2023/01/17 04:04:00;;;;;;;0.93;0.40;;;4.20;99.90;;;;;;4191880;28;20491;-79
2023/01/17 04:06:02;;;;;;;0.40;0.27;;;4.10;99.90;;;;;;4192588;28;20514;-79
2023/01/17 04:08:06;;;;;;;0.30;0.20;;;4.10;99.90;;;;;;4199131;28;20448;-79
2023/01/17 04:10:09;;;;;;;0.93;0.30;;;4.20;99.90;;;;;;4215778;28;20454;-79
2023/01/17 04:12:11;;;;;;;0.33;0.30;;;4.20;99.90;;;;;;4207028;28;20455;-79
2023/01/17 04:14:16;;;;;;;2.23;0.30;;;4.20;99.90;;;;;;4199684;28;20482;-78
2023/01/17 04:16:18;;;;;;;1.33;0.40;;;4.20;99.90;;;;;;4193973;28;20962;-79
2023/01/17 04:18:22;;;;;;;0.40;0.40;;;4.20;99.90;;;;;;4198898;28;20517;-79
2023/01/17 04:20:32;;;;;;;0.30;0.30;;;4.20;99.90;;;;;;4196284;28;20827;-79
2023/01/17 04:22:33;;;;;;;0.40;0.40;;;4.30;99.90;;;;;;4194644;28;20483;-78
2023/01/17 04:24:37;;;;;;;0.50;0.50;;;4.20;99.90;;;;;;4186958;28;20461;-79
2023/01/17 04:26:39;;;;;;;1.80;0.40;;;4.20;99.90;;;;;;4194513;28;20950;-78
2023/01/17 04:28:44;;;;;;;0.57;0.40;;;4.20;99.90;;;;;;4194102;28;20475;-78
2023/01/17 04:30:46;;;;;;;0.97;0.60;;;4.20;99.90;;;;;;4190555;28;20527;-78
2023/01/17 04:32:48;;;;;;;0.30;0.30;;;4.10;99.90;;;;;;4191563;28;21170;-79
2023/01/17 04:34:50;;;;;;;0.93;0.40;;;4.10;99.90;;;;;;4195008;28;20451;-78
2023/01/17 04:36:52;;;;;;;0.30;0.30;;;4.10;99.90;;;;;;4194956;28;20642;-78
2023/01/17 04:38:54;;;;;;;0.30;0.30;;;4.10;99.90;;;;;;4194155;28;20460;-78
2023/01/17 04:40:57;;;;;;;1.40;0.40;;;4.10;99.90;;;;;;4194022;28;20478;-78
2023/01/17 04:42:59;;;;;;;1.23;0.67;;;4.10;99.90;;;;;;4210841;28;20487;-78
2023/01/17 04:45:02;;;;;;;0.67;0.30;;;4.10;99.90;;;;;;4193227;28;20459;-78
2023/01/17 04:47:04;;;;;;;0.97;0.60;;;4.10;99.90;;;;;;4194878;28;20456;-78
2023/01/17 04:49:08;;;;;;;0.63;0.40;;;4.10;99.90;;;;;;4193989;28;20456;-78
2023/01/17 04:51:10;;;;;;;0.57;0.40;;;4.10;99.90;;;;;;4194212;28;20525;-77
2023/01/17 04:53:12;;;;;;;0.53;0.50;;;4.10;99.90;;;;;;4193888;28;20456;-78
2023/01/17 04:55:14;;;;;;;0.60;0.47;;;4.10;99.90;;;;;;4204401;28;20467;-79
2023/01/17 04:57:18;;;;;;;0.57;0.33;;;4.10;99.90;;;;;;4193954;28;20471;-80
2023/01/17 04:59:20;;;;;;;1.47;0.60;;;4.10;99.90;;;;;;4196452;28;21241;-78
2023/01/17 05:01:22;;;;;;;1.13;0.40;;;4.10;99.90;;;;;;4195922;28;20464;-79
2023/01/17 05:03:25;;;;;;;1.37;0.30;;;4.00;99.90;;;;;;4199013;28;20493;-78
2023/01/17 05:05:27;;;;;;;0.90;0.50;;;4.00;99.90;;;;;;4195572;28;20452;-79
2023/01/17 05:07:29;;;;;;;0.60;0.57;;;4.00;99.90;;;;;;4192415;28;20488;-78
2023/01/17 05:09:31;;;;;;;0.40;0.40;;;4.10;99.90;;;;;;4194753;28;20521;-79
2023/01/17 05:11:33;;;;;;;0.77;0.60;;;4.10;99.90;;;;;;4194327;28;20468;-79
2023/01/17 05:13:37;;;;;;;0.60;0.40;;;4.00;99.90;;;;;;4193353;28;20468;-78
2023/01/17 05:15:41;;;;;;;0.50;0.50;;;4.00;99.90;;;;;;4194159;28;20494;-78
2023/01/17 05:17:43;;;;;;;0.30;0.30;;;4.00;99.90;;;;;;4211740;28;20501;-78
2023/01/17 05:19:45;;;;;;;0.70;0.50;;;4.00;99.90;;;;;;4194405;28;22014;-79
2023/01/17 05:21:47;;;;;;;0.63;0.50;;;4.00;99.90;;;;;;4200091;28;20482;-79
2023/01/17 05:23:49;;;;;;;0.50;0.40;;;4.00;99.90;;;;;;4196988;28;20551;-78
2023/01/17 05:25:51;;;;;;;0.97;0.50;;;4.00;99.90;;;;;;4199529;28;20941;-78
2023/01/17 05:27:53;;;;;;;1.70;0.50;;;4.00;99.90;;;;;;4195878;28;20444;-78
2023/01/17 05:29:57;;;;;;;0.73;0.50;;;4.00;99.90;;;;;;4199598;28;20509;-78
2023/01/17 05:31:59;;;;;;;0.53;0.50;;;4.00;99.90;;;;;;4193769;28;20452;-78
2023/01/17 05:34:01;;;;;;;2.17;0.50;;;4.00;99.90;;;;;;4205796;28;20474;-78
2023/01/17 05:36:03;;;;;;;0.37;0.37;;;4.00;99.90;;;;;;4191815;28;20503;-78
2023/01/17 05:38:05;;;;;;;1.30;0.57;;;4.00;99.90;;;;;;4196735;28;21087;-78
2023/01/17 05:40:09;;;;;;;1.03;0.50;;;4.00;99.90;;;;;;4197058;28;20447;-78
2023/01/17 05:42:11;;;;;;;0.60;0.60;;;4.00;99.90;;;;;;4194695;28;20479;-78
2023/01/17 05:44:19;;;;;;;1.27;0.50;;;4.10;99.90;;;;;;4197818;28;20444;-78
2023/01/17 05:46:22;;;;;;;0.47;0.40;;;4.00;99.90;;;;;;4193728;28;20863;-78
2023/01/17 05:48:24;;;;;;;0.50;0.50;;;4.00;99.90;;;;;;4197271;28;21055;-78
2023/01/17 05:50:29;;;;;;;1.60;0.50;;;4.00;99.90;;;;;;4200761;28;20854;-78
2023/01/17 05:52:31;;;;;;;1.10;0.60;;;4.00;99.90;;;;;;4203577;28;20478;-78
2023/01/17 05:54:33;;;;;;;0.83;0.53;;;4.00;99.90;;;;;;4197969;28;20452;-78
2023/01/17 05:56:36;;;;;;;2.30;0.50;;;4.00;99.90;;;;;;4212129;28;20890;-78
2023/01/17 05:58:39;;;;;;;1.07;0.57;;;4.40;99.90;;;;;;4190762;28;20882;-78
2023/01/17 06:00:44;;;;;;;1.97;0.63;;;4.10;99.90;;;;;;4197981;28;20463;-78
2023/01/17 06:02:48;;;;;;;0.73;0.50;;;4.10;99.90;;;;;;4198874;28;20488;-78
2023/01/17 06:04:50;;;;;;;1.40;0.63;;;4.10;99.90;;;;;;4207116;28;20455;-78
2023/01/17 06:06:52;;;;;;;0.47;0.43;;;5.10;99.90;;;;;;4196925;28;20455;-78
2023/01/17 06:08:54;;;;;;;1.20;0.53;;;4.10;99.90;;;;;;4196456;28;20470;-78
2023/01/17 06:10:58;;;;;;;1.07;0.60;;;4.10;99.90;;;;;;4195725;28;20455;-77
2023/01/17 06:13:02;;;;;;;0.80;0.60;;;4.10;99.90;;;;;;4195569;28;20460;-78
2023/01/17 06:15:05;;;;;;;1.97;0.80;;;4.10;99.90;;;;;;4194515;28;20460;-78
2023/01/17 06:17:07;;;;;;;3.10;0.97;;;4.10;99.90;;;;;;4195899;28;20464;-79
2023/01/17 06:19:11;;;;;;;2.30;0.70;;;4.10;99.90;;;;;;4192640;28;21212;-78
2023/01/17 06:21:12;;;;;;;0.60;0.60;;;4.10;99.90;;;;;;4197400;28;20454;-77
2023/01/17 06:23:15;;;;;;;0.93;0.60;;;4.10;99.90;;;;;;4194152;28;20493;-78
2023/01/17 06:25:17;;;;;;;0.63;0.50;;;4.10;99.90;;;;;;4197263;28;20502;-78
2023/01/17 06:27:19;;;;;;;1.27;0.60;;;4.10;99.90;;;;;;4202682;28;20936;-78
2023/01/17 06:29:20;;;;;;;1.47;0.80;;;4.10;99.90;;;;;;4215971;28;20459;-78
2023/01/17 06:31:22;;;;;;;2.60;1.40;;;4.10;99.90;;;;;;4196362;28;20452;-78
2023/01/17 06:33:24;;;;;;;1.97;1.13;;;4.10;99.90;;;;;;4208995;28;21195;-78
2023/01/17 06:35:28;;;;;;;1.40;0.77;;;4.10;99.90;;;;;;4190807;28;20877;-78
2023/01/17 06:37:30;;;;;;;1.17;0.70;;;4.00;99.90;;;;;;4194331;28;20808;-78
2023/01/17 06:39:32;;;;;;;1.63;0.80;;;4.00;99.90;;;;;;4196019;28;21064;-78
2023/01/17 06:41:34;;;;;;;0.93;0.60;;;4.00;99.90;;;;;;4195103;28;20440;-78
2023/01/17 06:43:36;;;;;;;2.00;0.70;;;4.10;99.90;;;;;;4195221;28;20492;-78
2023/01/17 06:45:39;;;;;;;1.70;0.70;;;4.10;99.90;;;;;;4190672;28;20456;-78
2023/01/17 06:47:42;;;;;;;1.63;0.80;;;4.10;99.90;;;;;;4196994;28;20609;-78
2023/01/17 06:49:44;;;;;;;1.77;0.80;;;4.10;99.90;;;;;;4193087;28;20456;-79
2023/01/17 06:51:47;;;;;;;2.13;1.10;;;4.10;99.90;;;;;;4194123;28;20456;-78
2023/01/17 06:53:49;;;;;;;2.50;1.30;;;4.10;99.90;;;;;;4192822;28;20476;-78
2023/01/17 06:55:52;;;;;;;0.53;0.40;;;4.10;99.90;;;;;;4195168;28;20479;-78
2023/01/17 06:57:55;;;;;;;1.87;0.80;;;4.10;99.90;;;;;;4193199;28;20452;-78
2023/01/17 06:59:57;;;;;;;0.83;0.50;;;4.10;99.90;;;;;;4191659;28;20990;-78
2023/01/17 07:01:59;;;;;;;0.97;0.67;;;4.10;99.90;;;;;;4192364;28;20452;-78
2023/01/17 07:04:01;;;;;;;1.73;0.80;;;4.30;99.90;;;;;;4193937;28;20599;-78
2023/01/17 07:06:05;;;;;;;1.07;0.70;;;4.10;99.90;;;;;;4194356;28;20511;-78
2023/01/17 07:08:08;;;;;;;1.83;0.80;;;4.00;99.90;;;;;;4195622;28;20462;-78
2023/01/17 07:10:11;;;;;;;1.37;0.80;;;4.00;99.90;;;;;;4193524;28;20444;-78
2023/01/17 07:12:13;;;;;;;0.90;0.70;;;4.00;99.90;;;;;;4194462;28;20443;-78
2023/01/17 07:14:15;;;;;;;1.20;0.70;;;4.00;99.90;;;;;;4194340;28;20456;-78
2023/01/17 07:16:17;;;;;;;2.20;0.70;;;4.00;99.90;;;;;;4195569;28;20468;-77
2023/01/17 07:18:22;;;;;;;1.50;0.70;;;3.90;99.90;;;;;;4208369;28;20596;-78
2023/01/17 07:20:24;;;;;;;1.23;0.70;;;4.20;99.90;;;;;;4193839;28;20451;-76
2023/01/17 07:22:26;;;;;;;1.33;0.80;;;3.90;99.90;;;;;;4199996;28;21206;-78
2023/01/17 07:24:29;;;;;;;2.30;0.97;;;3.90;99.90;;;;;;4189159;28;20521;-79
2023/01/17 07:26:31;;;;;;;1.23;0.60;;;3.90;99.90;;;;;;4190928;28;20852;-79
2023/01/17 07:28:33;;;;;;;2.63;0.70;;;3.90;99.90;;;;;;4191753;28;20452;-78
2023/01/17 07:30:36;;;;;;;2.83;0.70;;;4.10;99.90;;;;;;4187388;28;20855;-78
2023/01/17 07:32:38;;;;;;;1.60;1.00;;;3.90;99.90;;;;;;4192912;28;21004;-78
2023/01/17 07:34:40;;;;;;;1.07;0.70;;;3.80;99.90;;;;;;4194281;28;20484;-78
2023/01/17 07:36:41;;;;;;;1.40;0.80;;;3.80;99.90;;;;;;4193428;28;20956;-78
2023/01/17 07:38:46;;;;;;;1.73;0.90;;;3.80;99.90;;;;;;4194234;28;20483;-78
2023/01/17 07:40:49;;;;;;;1.63;0.80;;;3.80;99.90;;;;;;4194115;28;20448;-78
2023/01/17 07:42:51;;;;;;;1.60;0.60;;;3.80;99.90;;;;;;4192463;28;20467;-78
2023/01/17 07:44:53;;;;;;;1.03;0.80;;;3.80;99.90;;;;;;4195306;28;20456;-76
2023/01/17 07:46:55;;;;;;;2.53;1.10;;;3.80;99.90;;;;;;4196382;28;20464;-78
2023/01/17 07:49:00;;;;;;;1.77;0.90;;;3.80;99.90;;;;;;4187930;28;20546;-79
2023/01/17 07:51:02;;;;;;;0.70;0.70;;;3.80;99.90;;;;;;4192179;28;20456;-78
2023/01/17 07:53:04;;;;;;;1.97;1.00;;;3.80;99.90;;;;;;4189587;28;20533;-78
2023/01/17 07:55:08;;;;;;;2.20;0.80;;;3.70;99.90;;;;;;4191160;28;20945;-78
2023/01/17 07:57:13;;;;;;;1.30;0.90;;;3.70;99.90;;;;;;4194933;28;20454;-78
2023/01/17 07:59:15;;;;;;;1.93;0.90;;;3.70;99.90;;;;;;4193176;28;21140;-78
2023/01/17 08:01:17;;;;;;;1.40;0.80;;;3.70;99.90;;;;;;4188895;28;20465;-78
2023/01/17 08:03:19;;;;;;;3.00;0.60;;;3.70;99.90;;;;;;4206805;28;20502;-79
2023/01/17 08:05:21;;;;;;;2.50;1.00;;;3.60;99.90;;;;;;4194435;28;20452;-78
2023/01/17 08:07:23;;;;;;;1.63;0.80;;;3.70;99.90;;;;;;4193718;28;21145;-78
2023/01/17 08:09:25;;;;;;;2.00;1.00;;;3.70;99.90;;;;;;4195344;28;20448;-78
2023/01/17 08:11:27;;;;;;;1.30;0.80;;;3.70;99.90;;;;;;4192816;28;20448;-78
2023/01/17 08:13:30;;;;;;;1.27;0.90;;;3.70;99.90;;;;;;4195227;28;20891;-79
2023/01/17 08:15:32;;;;;;;1.70;0.73;;;3.70;99.90;;;;;;4193929;28;20436;-79
2023/01/17 08:17:34;;;;;;;1.63;1.03;;;3.60;99.90;;;;;;4193627;28;20464;-78
2023/01/17 08:19:36;;;;;;;0.73;0.70;;;3.60;99.90;;;;;;4194048;28;21216;-78
2023/01/17 08:21:38;;;;;;;0.90;0.73;;;3.60;99.90;;;;;;4193686;28;20491;-78
2023/01/17 08:23:40;;;;;;;1.60;0.83;;;3.60;99.90;;;;;;4195005;28;20530;-78
2023/01/17 08:25:42;;;;;;;2.27;0.80;;;3.60;99.90;;;;;;4196095;28;20455;-79
2023/01/17 08:27:44;;;;;;;1.30;0.87;;;3.60;99.90;;;;;;4193190;28;20480;-78
2023/01/17 08:29:48;;;;;;;2.87;0.90;;;3.50;99.90;;;;;;4195226;28;20447;-78
2023/01/17 08:31:50;;;;;;;1.67;0.73;;;3.50;99.90;;;;;;4193371;28;20448;-78
2023/01/17 08:33:52;;;;;;;1.97;0.70;;;3.60;99.90;;;;;;4190371;28;20464;-78
2023/01/17 08:35:54;;;;;;;1.37;0.60;;;3.60;99.90;;;;;;4190380;28;20456;-78
2023/01/17 08:37:58;;;;;;;3.70;1.30;;;3.60;99.90;;;;;;4191831;28;20487;-79
2023/01/17 08:40:00;;;;;;;2.00;0.80;;;3.60;99.90;;;;;;4195298;28;20452;-78
2023/01/17 08:42:02;;;;;;;2.57;1.03;;;3.60;99.90;;;;;;4192666;28;20492;-78
2023/01/17 08:44:04;;;;;;;3.07;0.80;;;3.70;99.90;;;;;;4195161;28;20476;-78
2023/01/17 08:46:08;;;;;;;1.00;0.90;;;3.60;99.90;;;;;;4192504;28;20455;-78
2023/01/17 08:48:10;;;;;;;1.63;0.90;;;3.60;99.90;;;;;;4193418;28;20500;-78
2023/01/17 08:50:12;;;;;;;1.63;0.80;;;3.60;99.90;;;;;;4195997;28;20444;-78
2023/01/17 08:52:16;;;;;;;0.70;0.60;;;3.60;99.90;;;;;;4196767;28;20480;-78
2023/01/17 08:54:21;;;;;;;1.57;0.93;;;3.50;99.90;;;;;;4197415;28;20448;-78
2023/01/17 08:56:24;;;;;;;1.00;0.70;;;3.50;99.90;;;;;;4197736;28;20456;-78
2023/01/17 08:58:27;;;;;;;1.30;0.70;;;3.50;99.90;;;;;;4200357;28;20447;-78
2023/01/17 09:00:30;;;;;;;0.80;0.70;;;3.50;99.90;;;;;;4212525;28;20851;-78
2023/01/17 09:02:35;;;;;;;3.60;0.83;;;3.50;99.90;;;;;;4213348;28;20508;-76
2023/01/17 09:04:37;;;;;;;1.43;0.80;;;3.50;99.90;;;;;;4197929;28;20864;-79
2023/01/17 09:06:39;;;;;;;1.63;1.03;;;3.50;99.90;;;;;;4196288;28;20460;-80
2023/01/17 09:08:46;;;;;;;1.23;0.70;;;3.50;99.90;;;;;;4198925;28;20447;-80
2023/01/17 09:10:48;;;;;;;3.50;0.60;;;3.50;99.90;;;;;;4197148;28;21049;-80
2023/01/17 09:12:50;;;;;;;2.30;0.70;;;3.90;99.90;;;;;;4215342;28;20536;-80
2023/01/17 09:14:52;;;;;;;3.50;0.90;;;3.50;99.90;;;;;;4199744;28;20440;-79
2023/01/17 09:16:54;;;;;;;1.77;0.70;;;3.60;99.90;;;;;;4201209;28;20447;-80
2023/01/17 09:18:59;;;;;;;2.33;0.83;;;3.50;99.90;;;;;;4201666;28;20505;-80
2023/01/17 09:21:10;;;;;;;0.83;0.70;;;3.60;99.90;;;;;;4217055;28;20467;-79
2023/01/17 09:23:12;;;;;;;1.37;0.83;;;3.60;99.90;;;;;;4215138;28;21164;-79
2023/01/17 09:25:14;;;;;;;1.70;0.80;;;3.70;99.90;;;;;;4201144;28;20468;-80
2023/01/17 09:27:16;;;;;;;1.70;0.80;;;3.80;99.90;;;;;;4201199;28;20874;-79
2023/01/17 09:29:18;;;;;;;1.80;0.90;;;3.80;99.90;;;;;;4201041;28;20953;-79
2023/01/17 09:31:21;;;;;;;1.10;0.80;;;3.90;99.90;;;;;;4201653;28;20548;-79
2023/01/17 09:33:24;;;;;;;1.93;0.90;;;4.10;99.90;;;;;;4200815;28;20498;-79
2023/01/17 09:35:29;;;;;;;0.93;0.70;;;4.10;99.90;;;;;;4202680;28;21161;-79
2023/01/17 09:37:31;;;;;;;3.90;1.33;;;4.20;99.90;;;;;;4201334;28;20984;-78
2023/01/17 09:39:33;;;;;;;1.53;0.80;;;4.20;99.90;;;;;;4201578;28;20904;-79
2023/01/17 09:41:42;;;;;;;1.70;0.87;;;4.30;99.90;;;;;;4199969;28;20472;-80
2023/01/17 09:43:49;;;;;;;3.77;0.80;;;4.40;99.90;;;;;;4201654;28;20956;-79
2023/01/17 09:45:51;;;;;;;1.63;0.90;;;4.40;99.90;;;;;;4201519;28;20953;-82
2023/01/17 09:47:55;;;;;;;1.30;0.67;;;4.40;99.90;;;;;;4204053;28;20652;-80
2023/01/17 09:50:03;;;;;;;2.17;0.87;;;4.40;99.90;;;;;;4195199;28;20456;-76
2023/01/17 09:52:08;;;;;;;1.20;0.60;;;4.40;99.90;;;;;;4204132;28;20495;-79
2023/01/17 09:54:20;;;;;;;1.70;0.67;;;4.40;99.90;;;;;;4201568;28;20439;-79
2023/01/17 09:56:28;;;;;;;1.80;0.77;;;4.70;99.90;;;;;;4202955;28;20447;-78
2023/01/17 09:58:42;;;;;;;1.80;1.03;;;4.40;99.90;;;;;;4201955;28;20473;-79
2023/01/17 10:00:56;;;;;;;2.57;1.27;;;4.40;99.90;;;;;;4199139;28;21092;-80
2023/01/17 10:03:20;;;;;;;2.23;0.70;;;4.40;99.90;;;;;;4198360;28;20471;-79
2023/01/17 10:05:48;;;;;;;2.63;0.83;;;4.50;99.90;;;;;;4198694;28;20476;-80
2023/01/17 10:08:06;;;;;;;0.73;0.73;;;4.50;99.90;;;;;;4200274;28;20475;-80
2023/01/17 10:10:19;;;;;;;1.97;0.80;;;4.60;99.90;;;;;;4200156;28;20893;-78
2023/01/17 10:12:33;;;;;;;1.30;0.70;;;4.50;99.90;;;;;;4199984;28;20460;-79
2023/01/17 10:15:02;;;;;;;1.63;0.90;;;4.50;99.90;;;;;;4200384;28;20477;-79
2023/01/17 10:17:14;;;;;;;1.77;0.70;;;4.60;99.90;;;;;;4198066;28;20464;-80
2023/01/17 10:19:30;;;;;;;0.70;0.60;;;4.60;99.90;;;;;;4221840;28;20574;-79
2023/01/17 10:21:49;;;;;;;2.20;0.80;;;4.60;99.90;;;;;;4201702;28;20483;-80
2023/01/17 10:24:16;;;;;;;1.30;0.60;;;4.60;99.90;;;;;;4197369;28;20473;-80
2023/01/17 10:26:20;;;;;;;2.97;1.10;;;4.60;99.90;;;;;;4213183;28;20458;-80
2023/01/17 10:28:26;;;;;;;1.73;0.90;;;4.50;99.90;;;;;;4216057;28;20456;-79
2023/01/17 10:30:34;;;;;;;2.13;0.80;;;4.50;99.90;;;;;;4198085;28;20476;-82
2023/01/17 10:32:45;;;;;;;2.37;0.90;;;4.50;99.90;;;;;;4202637;28;20479;-80
2023/01/17 10:34:51;;;;;;;2.97;0.90;;;4.50;99.90;;;;;;4200568;28;20489;-79
2023/01/17 10:36:59;;;;;;;1.27;0.73;;;4.50;99.90;;;;;;4210074;28;20460;-79
2023/01/17 10:39:12;;;;;;;1.77;0.87;;;4.40;99.90;;;;;;4224253;28;20530;-79
2023/01/17 10:41:22;;;;;;;3.43;1.00;;;4.40;99.90;;;;;;4194582;28;21013;-79
2023/01/17 10:43:30;;;;;;;1.80;0.90;;;4.30;99.90;;;;;;4221909;28;20470;-79
2023/01/17 10:45:39;;;;;;;2.70;0.70;;;4.10;99.90;;;;;;4217507;28;20475;-79
2023/01/17 10:47:45;;;;;;;2.40;0.70;;;4.30;99.90;;;;;;4214493;28;20452;-79
2023/01/17 10:49:53;;;;;;;3.33;0.90;;;4.30;99.90;;;;;;4199428;28;20451;-79
2023/01/17 10:52:15;;;;;;;1.43;0.80;;;4.30;99.90;;;;;;4202389;28;20459;-79
2023/01/17 10:54:28;;;;;;;0.90;0.70;;;4.30;99.90;;;;;;4211288;28;20471;-79
2023/01/17 10:56:33;;;;;;;1.60;0.60;;;4.40;99.90;;;;;;4193023;28;20462;-80
2023/01/17 10:58:35;;;;;;;3.00;1.00;;;4.40;99.90;;;;;;4211043;28;20440;-78
2023/01/17 11:00:43;;;;;;;2.17;1.00;;;4.40;99.90;;;;;;4210514;28;20451;-80
2023/01/17 11:02:49;;;;;;;1.63;1.00;;;4.50;99.90;;;;;;4196852;28;20985;-81
2023/01/17 11:04:56;;;;;;;2.17;0.97;;;4.50;99.90;;;;;;4200968;28;20508;-83
2023/01/17 11:07:12;;;;;;;0.93;0.60;;;4.50;99.90;;;;;;4197385;28;20444;-78
2023/01/17 11:09:15;;;;;;;0.93;0.73;;;4.60;99.90;;;;;;4194398;28;20874;-78
2023/01/17 11:11:18;;;;;;;1.63;0.90;;;4.60;99.90;;;;;;4198785;28;20485;-80
2023/01/17 11:13:28;;;;;;;1.63;0.73;;;4.60;99.90;;;;;;4190311;28;20488;-79
2023/01/17 11:15:33;;;;;;;3.13;0.73;;;4.60;99.90;;;;;;4207735;28;20478;-80
2023/01/17 11:17:37;;;;;;;1.63;0.90;;;4.60;99.90;;;;;;4195252;28;20464;-80
2023/01/17 11:19:40;;;;;;;3.70;0.90;;;4.70;99.90;;;;;;4208575;28;20461;-79
2023/01/17 11:21:50;;;;;;;1.93;0.90;;;4.70;99.90;;;;;;4211695;28;20444;-80
2023/01/17 11:23:57;;;;;;;1.10;0.70;;;4.80;99.90;;;;;;4195775;28;20480;-81
2023/01/17 11:26:02;;;;;;;1.30;0.73;;;4.80;99.90;;;;;;4197477;28;20478;-82
2023/01/17 11:28:07;;;;;;;2.10;0.90;;;4.90;99.90;;;;;;4198618;28;20749;-79
2023/01/17 11:30:18;;;;;;;0.93;0.60;;;4.90;99.90;;;;;;4197560;28;20444;-79
2023/01/17 11:32:31;;;;;;;0.87;0.70;;;5.00;99.90;;;;;;4221844;28;20516;-80
2023/01/17 11:34:33;;;;;;;1.63;0.80;;;5.30;99.90;;;;;;4203892;28;20502;-79
2023/01/17 11:36:35;;;;;;;2.03;0.70;;;5.10;99.90;;;;;;4199566;28;20458;-81
2023/01/17 11:38:37;;;;;;;1.33;0.80;;;5.40;99.90;;;;;;4194710;28;20461;-80
2023/01/17 11:40:41;;;;;;;2.87;1.00;;;5.40;99.90;;;;;;4216701;28;20459;-80
2023/01/17 11:42:44;;;;;;;0.90;0.70;;;5.50;99.90;;;;;;4199295;28;20478;-81
2023/01/17 11:44:46;;;;;;;2.07;0.80;;;5.60;99.90;;;;;;4192243;28;20505;-80
2023/01/17 11:47:07;;;;;;;2.53;0.70;;;5.70;99.90;;;;;;4196648;28;20500;-80
2023/01/17 11:49:22;;;;;;;0.70;0.57;;;5.80;99.90;;;;;;4196020;28;20441;-79
2023/01/17 11:51:28;;;;;;;3.60;0.87;;;5.90;99.90;;;;;;4193386;28;20523;-80
2023/01/17 11:53:33;;;;;;;1.90;0.50;;;6.00;99.90;;;;;;4196759;28;21352;-80
2023/01/17 11:55:35;;;;;;;1.63;0.70;;;6.10;99.90;;;;;;4195369;28;20463;-80
2023/01/17 11:57:37;;;;;;;1.27;0.70;;;6.20;99.90;;;;;;4213674;28;20476;-80
2023/01/17 11:59:43;;;;;;;0.80;0.60;;;6.30;99.90;;;;;;4194952;28;20504;-80
2023/01/17 12:01:54;;;;;;;2.93;0.60;;;6.60;99.90;;;;;;4193787;28;20976;-80
2023/01/17 12:04:21;;;;;;;2.60;1.07;;;6.80;99.90;;;;;;4198702;28;20895;-80
2023/01/17 12:06:32;;;;;;;0.83;0.50;;;7.00;99.90;;;;;;4194642;28;20442;-79
2023/01/17 12:08:51;;;;;;;2.40;0.60;;;7.50;99.90;;;;;;4209592;28;20489;-80
2023/01/17 12:11:00;;;;;;;3.50;0.70;;;7.20;99.90;;;;;;4197899;28;20524;-82
2023/01/17 12:15:52;;;;;;;0.87;0.40;;;7.00;99.90;;;;;;4212393;28;20447;-79
2023/01/17 12:18:13;;;;;;;0.60;0.40;;;6.80;99.90;;;;;;4198684;28;20471;-80
2023/01/17 12:20:24;;;;;;;0.57;0.50;;;6.60;99.90;;;;;;4200999;28;20508;-79
2023/01/17 12:22:46;;;;;;;0.93;0.43;;;6.40;99.90;;;;;;4194107;28;20639;-79